createdAt,value
2017-04-10T00:00:10.771Z,23.27
2017-04-10T00:00:30.095Z,23.2
2017-04-10T00:00:49.402Z,23.27
2017-04-10T00:01:08.708Z,23.22
2017-04-10T00:01:27.981Z,23.23
2017-04-10T00:01:47.289Z,23.2
2017-04-10T00:02:06.536Z,23.27
2017-04-10T00:02:24.798Z,23.2
2017-04-10T00:02:44.098Z,23.23
2017-04-10T00:03:03.493Z,23.23
2017-04-10T00:03:22.789Z,23.24
2017-04-10T00:03:42.048Z,23.26
2017-04-10T00:04:01.348Z,23.24
2017-04-10T00:04:20.134Z,23.31
2017-04-10T00:04:39.426Z,23.33
2017-04-10T00:04:58.735Z,23.29
2017-04-10T00:05:17.511Z,23.33
2017-04-10T00:05:36.832Z,23.37
2017-04-10T00:05:56.146Z,23.42
2017-04-10T00:06:15.444Z,23.35
2017-04-10T00:06:34.734Z,23.38
2017-04-10T00:06:53.531Z,23.45
2017-04-10T00:07:12.280Z,23.35
2017-04-10T00:07:31.599Z,23.38
2017-04-10T00:07:50.915Z,23.38
2017-04-10T00:08:10.216Z,23.38
2017-04-10T00:08:29.507Z,23.33
2017-04-10T00:08:48.842Z,23.34
2017-04-10T00:09:08.148Z,23.37
2017-04-10T00:09:26.938Z,23.42
2017-04-10T00:09:46.240Z,23.4
2017-04-10T00:10:05.513Z,23.4
2017-04-10T00:10:24.292Z,23.4
2017-04-10T00:10:43.575Z,23.52
2017-04-10T00:11:02.895Z,23.4
2017-04-10T00:11:22.757Z,23.4
2017-04-10T00:11:42.183Z,23.42
2017-04-10T00:12:01.515Z,23.42
2017-04-10T00:12:20.785Z,23.48
2017-04-10T00:12:40.146Z,23.43
2017-04-10T00:12:59.481Z,23.38
2017-04-10T00:13:18.772Z,23.35
2017-04-10T00:13:38.056Z,23.31
2017-04-10T00:13:57.438Z,23.37
2017-04-10T00:14:16.237Z,23.37
2017-04-10T00:14:35.524Z,23.34
2017-04-10T00:14:54.964Z,23.29
2017-04-10T00:15:14.245Z,23.38
2017-04-10T00:15:33.526Z,23.42
2017-04-10T00:15:52.819Z,23.38
2017-04-10T00:16:11.582Z,23.31
2017-04-10T00:16:30.888Z,23.35
2017-04-10T00:16:50.142Z,23.38
2017-04-10T00:17:09.435Z,23.37
2017-04-10T00:17:28.189Z,23.24
2017-04-10T00:17:47.471Z,23.31
2017-04-10T00:18:06.742Z,23.18
2017-04-10T00:18:25.480Z,23.23
2017-04-10T00:18:44.792Z,23.34
2017-04-10T00:19:04.043Z,23.33
2017-04-10T00:19:23.340Z,23.34
2017-04-10T00:19:42.108Z,23.33
2017-04-10T00:20:01.389Z,23.35
2017-04-10T00:20:20.680Z,23.35
2017-04-10T00:20:39.965Z,23.31
2017-04-10T00:20:59.265Z,23.34
2017-04-10T00:21:18.051Z,23.33
2017-04-10T00:21:37.344Z,23.23
2017-04-10T00:21:56.648Z,23.2
2017-04-10T00:22:15.958Z,23.24
2017-04-10T00:22:35.254Z,23.11
2017-04-10T00:22:54.535Z,23.17
2017-04-10T00:23:13.514Z,23.15
2017-04-10T00:23:32.792Z,23.27
2017-04-10T00:23:51.541Z,23.23
2017-04-10T00:24:10.826Z,23.31
2017-04-10T00:24:30.132Z,23.29
2017-04-10T00:24:49.412Z,23.29
2017-04-10T00:25:08.690Z,23.29
2017-04-10T00:25:27.965Z,23.35
2017-04-10T00:25:47.301Z,23.31
2017-04-10T00:26:06.613Z,23.33
2017-04-10T00:26:25.920Z,23.34
2017-04-10T00:26:45.211Z,23.4
2017-04-10T00:27:04.537Z,23.43
2017-04-10T00:27:23.828Z,23.43
2017-04-10T00:27:43.102Z,23.43
2017-04-10T00:28:01.866Z,23.4
2017-04-10T00:28:21.164Z,23.42
2017-04-10T00:28:40.451Z,23.38
2017-04-10T00:28:59.777Z,23.42
2017-04-10T00:29:19.086Z,23.37
2017-04-10T00:29:38.359Z,23.52
2017-04-10T00:29:57.660Z,23.38
2017-04-10T00:30:16.442Z,23.4
2017-04-10T00:30:35.766Z,23.38
2017-04-10T00:30:54.551Z,23.42
2017-04-10T00:31:13.844Z,23.37
2017-04-10T00:31:33.135Z,23.52
2017-04-10T00:31:52.406Z,23.45
2017-04-10T00:32:11.679Z,23.35
2017-04-10T00:32:30.961Z,23.45
2017-04-10T00:32:49.748Z,23.43
2017-04-10T00:33:09.004Z,23.4
2017-04-10T00:33:27.810Z,23.45
2017-04-10T00:33:47.160Z,23.46
2017-04-10T00:34:06.500Z,23.38
2017-04-10T00:34:25.802Z,23.42
2017-04-10T00:34:45.080Z,23.38
2017-04-10T00:35:04.391Z,23.35
2017-04-10T00:35:23.691Z,23.46
2017-04-10T00:35:42.467Z,23.49
2017-04-10T00:36:01.800Z,23.46
2017-04-10T00:36:20.577Z,23.43
2017-04-10T00:36:39.876Z,23.5
2017-04-10T00:36:59.189Z,23.55
2017-04-10T00:37:18.503Z,23.45
2017-04-10T00:37:37.785Z,23.53
2017-04-10T00:37:56.590Z,23.43
2017-04-10T00:38:14.942Z,23.43
2017-04-10T00:38:34.269Z,23.49
2017-04-10T00:38:53.569Z,23.5
2017-04-10T00:39:12.852Z,23.56
2017-04-10T00:39:31.638Z,23.45
2017-04-10T00:39:50.926Z,23.42
2017-04-10T00:40:10.237Z,23.34
2017-04-10T00:40:29.009Z,23.38
2017-04-10T00:40:48.317Z,23.34
2017-04-10T00:41:07.625Z,23.38
2017-04-10T00:41:26.454Z,23.35
2017-04-10T00:41:45.723Z,23.29
2017-04-10T00:42:05.022Z,23.4
2017-04-10T00:42:23.811Z,23.4
2017-04-10T00:42:43.080Z,23.37
2017-04-10T00:43:02.379Z,23.43
2017-04-10T00:43:21.142Z,23.46
2017-04-10T00:43:40.438Z,23.49
2017-04-10T00:43:59.739Z,23.43
2017-04-10T00:44:19.030Z,23.46
2017-04-10T00:44:38.315Z,23.43
2017-04-10T00:44:57.610Z,23.42
2017-04-10T00:45:16.366Z,23.43
2017-04-10T00:45:35.137Z,23.42
2017-04-10T00:45:54.421Z,23.38
2017-04-10T00:46:13.714Z,23.37
2017-04-10T00:46:33.023Z,23.4
2017-04-10T00:46:52.280Z,23.35
2017-04-10T00:47:11.553Z,23.37
2017-04-10T00:47:30.865Z,23.38
2017-04-10T00:47:50.121Z,23.31
2017-04-10T00:48:09.512Z,23.29
2017-04-10T00:48:28.253Z,23.27
2017-04-10T00:48:47.547Z,23.24
2017-04-10T00:49:06.363Z,23.27
2017-04-10T00:49:25.160Z,23.2
2017-04-10T00:49:44.454Z,23.34
2017-04-10T00:50:03.223Z,23.33
2017-04-10T00:50:21.989Z,23.31
2017-04-10T00:50:41.326Z,23.35
2017-04-10T00:51:00.646Z,23.33
2017-04-10T00:51:19.910Z,23.22
2017-04-10T00:51:39.200Z,23.22
2017-04-10T00:51:58.511Z,23.14
2017-04-10T00:52:17.804Z,23.22
2017-04-10T00:52:37.116Z,23.22
2017-04-10T00:52:55.891Z,23.15
2017-04-10T00:53:15.191Z,23.17
2017-04-10T00:53:34.538Z,23.07
2017-04-10T00:53:53.325Z,22.92
2017-04-10T00:54:12.629Z,22.93
2017-04-10T00:54:31.882Z,22.96
2017-04-10T00:54:50.642Z,22.84
2017-04-10T00:55:09.923Z,22.83
2017-04-10T00:55:29.227Z,22.83
2017-04-10T00:55:48.541Z,22.89
2017-04-10T00:56:07.856Z,22.9
2017-04-10T00:56:27.140Z,22.84
2017-04-10T00:56:46.415Z,22.78
2017-04-10T00:57:05.702Z,22.77
2017-04-10T00:57:25.031Z,22.74
2017-04-10T00:57:44.293Z,22.71
2017-04-10T00:58:03.597Z,22.67
2017-04-10T00:58:22.906Z,22.68
2017-04-10T00:58:42.177Z,22.67
2017-04-10T00:59:01.463Z,22.69
2017-04-10T00:59:20.255Z,22.71
2017-04-10T00:59:39.522Z,22.63
2017-04-10T00:59:58.787Z,22.62
2017-04-10T01:00:18.139Z,22.63
2017-04-10T01:00:36.925Z,22.56
2017-04-10T01:00:56.230Z,22.6
2017-04-10T01:01:16.038Z,22.53
2017-04-10T01:01:36.062Z,22.57
2017-04-10T01:01:56.093Z,22.56
2017-04-10T01:02:17.278Z,22.56
2017-04-10T01:02:37.256Z,22.57
2017-04-10T01:02:57.273Z,22.53
2017-04-10T01:03:17.290Z,22.42
2017-04-10T01:03:37.308Z,22.42
2017-04-10T01:03:57.296Z,22.41
2017-04-10T01:04:17.293Z,22.41
2017-04-10T01:04:37.268Z,22.46
2017-04-10T01:04:57.258Z,22.37
2017-04-10T01:05:16.690Z,22.32
2017-04-10T01:05:36.669Z,22.38
2017-04-10T01:05:56.664Z,22.47
2017-04-10T01:06:16.086Z,22.37
2017-04-10T01:06:36.060Z,22.35
2017-04-10T01:06:55.486Z,22.38
2017-04-10T01:07:15.515Z,22.35
2017-04-10T01:07:34.954Z,22.35
2017-04-10T01:07:54.932Z,22.37
2017-04-10T01:08:14.922Z,22.42
2017-04-10T01:08:34.922Z,22.44
2017-04-10T01:08:54.923Z,22.38
2017-04-10T01:09:14.922Z,22.41
2017-04-10T01:09:34.959Z,22.39
2017-04-10T01:09:54.957Z,22.47
2017-04-10T01:10:14.991Z,22.37
2017-04-10T01:10:34.998Z,22.42
2017-04-10T01:10:55.034Z,22.5
2017-04-10T01:11:15.048Z,22.44
2017-04-10T01:11:34.458Z,22.37
2017-04-10T01:11:54.435Z,22.31
2017-04-10T01:12:14.420Z,22.39
2017-04-10T01:12:34.418Z,22.26
2017-04-10T01:12:53.877Z,22.35
2017-04-10T01:13:13.301Z,22.34
2017-04-10T01:13:33.343Z,22.26
2017-04-10T01:13:53.336Z,22.24
2017-04-10T01:14:12.768Z,22.28
2017-04-10T01:14:32.751Z,22.3
2017-04-10T01:14:52.740Z,22.23
2017-04-10T01:15:12.187Z,22.19
2017-04-10T01:15:32.184Z,22.34
2017-04-10T01:15:52.167Z,22.26
2017-04-10T01:16:12.136Z,22.3
2017-04-10T01:16:32.121Z,22.22
2017-04-10T01:16:52.076Z,22.24
2017-04-10T01:17:12.050Z,22.23
2017-04-10T01:17:32.041Z,22.17
2017-04-10T01:17:52.036Z,22.16
2017-04-10T01:18:12.030Z,22.28
2017-04-10T01:18:32.015Z,22.24
2017-04-10T01:18:52.028Z,22.22
2017-04-10T01:19:12.018Z,22.31
2017-04-10T01:19:32.026Z,22.26
2017-04-10T01:19:52.041Z,22.2
2017-04-10T01:20:12.034Z,22.34
2017-04-10T01:20:32.015Z,22.32
2017-04-10T01:20:52.029Z,22.42
2017-04-10T01:21:12.016Z,22.37
2017-04-10T01:21:30.883Z,22.26
2017-04-10T01:21:50.912Z,22.35
2017-04-10T01:22:10.915Z,22.38
2017-04-10T01:22:30.917Z,22.34
2017-04-10T01:22:50.891Z,22.31
2017-04-10T01:23:10.335Z,22.42
2017-04-10T01:23:30.325Z,22.38
2017-04-10T01:23:49.706Z,22.39
2017-04-10T01:24:09.697Z,22.38
2017-04-10T01:24:29.128Z,22.32
2017-04-10T01:24:49.107Z,22.35
2017-04-10T01:25:09.134Z,22.37
2017-04-10T01:25:29.121Z,22.39
2017-04-10T01:25:49.118Z,22.42
2017-04-10T01:26:09.104Z,22.49
2017-04-10T01:26:29.086Z,22.41
2017-04-10T01:26:49.080Z,22.53
2017-04-10T01:27:12.371Z,22.56
2017-04-10T01:27:32.353Z,22.56
2017-04-10T01:27:52.345Z,22.57
2017-04-10T01:28:12.318Z,22.67
2017-04-10T01:28:32.329Z,22.69
2017-04-10T01:28:52.321Z,22.68
2017-04-10T01:29:12.301Z,22.68
2017-04-10T01:29:32.272Z,22.72
2017-04-10T01:29:52.262Z,22.68
2017-04-10T01:30:12.278Z,22.72
2017-04-10T01:30:32.244Z,22.74
2017-04-10T01:30:52.208Z,22.75
2017-04-10T01:31:12.177Z,22.75
2017-04-10T01:31:32.186Z,22.72
2017-04-10T01:31:52.190Z,22.77
2017-04-10T01:32:11.632Z,22.78
2017-04-10T01:32:31.076Z,22.77
2017-04-10T01:32:51.076Z,22.79
2017-04-10T01:33:10.495Z,22.78
2017-04-10T01:33:30.492Z,22.69
2017-04-10T01:33:50.478Z,22.71
2017-04-10T01:34:10.478Z,22.71
2017-04-10T01:34:30.480Z,22.71
2017-04-10T01:34:50.500Z,22.71
2017-04-10T01:35:10.499Z,22.78
2017-04-10T01:35:30.476Z,22.65
2017-04-10T01:35:50.487Z,22.57
2017-04-10T01:36:10.463Z,22.74
2017-04-10T01:36:30.457Z,22.68
2017-04-10T01:36:50.492Z,22.72
2017-04-10T01:37:10.501Z,22.71
2017-04-10T01:37:30.492Z,22.69
2017-04-10T01:37:50.464Z,22.67
2017-04-10T01:38:10.473Z,22.74
2017-04-10T01:38:30.479Z,22.67
2017-04-10T01:38:49.922Z,22.71
2017-04-10T01:39:09.907Z,22.75
2017-04-10T01:39:30.065Z,22.71
2017-04-10T01:39:49.447Z,22.71
2017-04-10T01:40:09.454Z,22.72
2017-04-10T01:40:29.446Z,22.78
2017-04-10T01:40:49.448Z,22.75
2017-04-10T01:41:09.468Z,22.84
2017-04-10T01:41:28.313Z,22.74
2017-04-10T01:41:48.299Z,22.86
2017-04-10T01:42:08.310Z,22.84
2017-04-10T01:42:28.308Z,22.63
2017-04-10T01:42:48.292Z,22.69
2017-04-10T01:43:08.265Z,22.71
2017-04-10T01:43:28.296Z,22.84
2017-04-10T01:43:48.253Z,22.71
2017-04-10T01:44:08.238Z,22.72
2017-04-10T01:44:28.218Z,22.71
2017-04-10T01:44:48.229Z,22.74
2017-04-10T01:45:07.687Z,22.77
2017-04-10T01:45:27.677Z,22.75
2017-04-10T01:45:47.656Z,22.72
2017-04-10T01:46:07.668Z,22.9
2017-04-10T01:46:27.668Z,22.75
2017-04-10T01:46:47.134Z,22.87
2017-04-10T01:47:07.147Z,22.75
2017-04-10T01:47:27.139Z,22.84
2017-04-10T01:47:47.126Z,22.79
2017-04-10T01:48:07.126Z,22.74
2017-04-10T01:48:27.099Z,22.72
2017-04-10T01:48:46.537Z,22.74
2017-04-10T01:49:06.518Z,22.74
2017-04-10T01:49:26.517Z,22.86
2017-04-10T01:49:46.474Z,22.74
2017-04-10T01:50:05.904Z,22.75
2017-04-10T01:50:25.319Z,22.87
2017-04-10T01:50:44.765Z,22.83
2017-04-10T01:51:04.748Z,22.86
2017-04-10T01:51:24.749Z,22.92
2017-04-10T01:51:44.723Z,22.87
2017-04-10T01:52:04.702Z,22.86
2017-04-10T01:52:24.703Z,22.86
2017-04-10T01:52:44.634Z,22.9
2017-04-10T01:53:04.992Z,22.94
2017-04-10T01:53:25.020Z,22.93
2017-04-10T01:53:44.993Z,22.84
2017-04-10T01:54:05.001Z,22.94
2017-04-10T01:54:25.014Z,22.99
2017-04-10T01:54:45.001Z,23.04
2017-04-10T01:55:04.968Z,23
2017-04-10T01:55:24.993Z,23.04
2017-04-10T01:55:44.424Z,22.94
2017-04-10T01:56:04.420Z,23.05
2017-04-10T01:56:24.389Z,23.02
2017-04-10T01:56:44.410Z,23.05
2017-04-10T01:57:04.385Z,23.08
2017-04-10T01:57:24.382Z,23
2017-04-10T01:57:44.372Z,23.11
2017-04-10T01:58:04.514Z,23.05
2017-04-10T01:58:24.520Z,23.08
2017-04-10T01:58:44.517Z,22.99
2017-04-10T01:59:04.520Z,22.99
2017-04-10T01:59:23.945Z,22.97
2017-04-10T01:59:43.944Z,23.05
2017-04-10T02:00:03.371Z,23.11
2017-04-10T02:00:23.352Z,23.11
2017-04-10T02:00:43.344Z,23.11
2017-04-10T02:01:02.751Z,23.09
2017-04-10T02:01:22.732Z,23.09
2017-04-10T02:01:42.748Z,23.07
2017-04-10T02:02:02.732Z,23.05
2017-04-10T02:02:22.757Z,23.07
2017-04-10T02:02:42.827Z,23.17
2017-04-10T02:03:02.289Z,23.17
2017-04-10T02:03:22.296Z,23.15
2017-04-10T02:03:42.283Z,23.15
2017-04-10T02:04:01.736Z,23.12
2017-04-10T02:04:21.712Z,23.02
2017-04-10T02:04:41.699Z,23.08
2017-04-10T02:05:01.115Z,23.14
2017-04-10T02:05:20.554Z,23.14
2017-04-10T02:05:40.559Z,23.07
2017-04-10T02:06:00.584Z,23.12
2017-04-10T02:06:20.564Z,23.22
2017-04-10T02:06:40.580Z,23.22
2017-04-10T02:07:00.579Z,23.27
2017-04-10T02:07:20.591Z,23.22
2017-04-10T02:07:40.578Z,23.23
2017-04-10T02:08:00.543Z,23.22
2017-04-10T02:08:20.512Z,23.27
2017-04-10T02:08:40.494Z,23.24
2017-04-10T02:09:00.475Z,23.23
2017-04-10T02:09:20.462Z,23.08
2017-04-10T02:09:40.454Z,23.07
2017-04-10T02:10:00.449Z,23.17
2017-04-10T02:10:20.393Z,23.14
2017-04-10T02:10:40.379Z,23.11
2017-04-10T02:10:59.804Z,23.15
2017-04-10T02:11:19.808Z,22.93
2017-04-10T02:11:39.208Z,23.09
2017-04-10T02:11:59.180Z,23.07
2017-04-10T02:12:19.192Z,23.15
2017-04-10T02:12:39.194Z,23.2
2017-04-10T02:12:58.630Z,23.15
2017-04-10T02:13:18.585Z,22.93
2017-04-10T02:13:38.573Z,22.97
2017-04-10T02:13:58.576Z,23.07
2017-04-10T02:14:18.568Z,22.97
2017-04-10T02:14:38.536Z,22.96
2017-04-10T02:14:58.541Z,23.05
2017-04-10T02:15:18.524Z,22.99
2017-04-10T02:15:38.553Z,22.99
2017-04-10T02:15:58.568Z,22.9
2017-04-10T02:16:18.583Z,23
2017-04-10T02:16:37.992Z,22.89
2017-04-10T02:16:57.997Z,22.83
2017-04-10T02:17:17.992Z,22.83
2017-04-10T02:17:37.976Z,22.75
2017-04-10T02:17:57.958Z,22.78
2017-04-10T02:18:17.967Z,22.75
2017-04-10T02:18:37.963Z,22.83
2017-04-10T02:18:57.974Z,22.78
2017-04-10T02:19:17.412Z,22.83
2017-04-10T02:19:51.219Z,22.93
2017-04-10T02:20:11.213Z,22.75
2017-04-10T02:20:31.215Z,22.71
2017-04-10T02:20:51.187Z,22.68
2017-04-10T02:21:11.180Z,22.77
2017-04-10T02:21:31.153Z,22.74
2017-04-10T02:21:51.133Z,22.63
2017-04-10T02:22:10.589Z,22.67
2017-04-10T02:22:30.629Z,22.68
2017-04-10T02:22:50.631Z,22.71
2017-04-10T02:23:10.638Z,22.62
2017-04-10T02:23:30.647Z,22.57
2017-04-10T02:23:50.654Z,22.65
2017-04-10T02:24:10.642Z,22.62
2017-04-10T02:24:30.615Z,22.56
2017-04-10T02:24:50.596Z,22.67
2017-04-10T02:25:10.584Z,22.67
2017-04-10T02:25:30.555Z,22.68
2017-04-10T02:25:50.514Z,22.71
2017-04-10T02:26:09.417Z,22.75
2017-04-10T02:26:28.839Z,22.79
2017-04-10T02:26:48.277Z,22.68
2017-04-10T02:27:08.212Z,22.78
2017-04-10T02:27:28.212Z,22.52
2017-04-10T02:27:48.252Z,22.63
2017-04-10T02:28:08.235Z,22.71
2017-04-10T02:28:28.236Z,22.69
2017-04-10T02:28:48.262Z,22.65
2017-04-10T02:29:08.253Z,22.67
2017-04-10T02:29:28.256Z,22.56
2017-04-10T02:29:48.274Z,22.63
2017-04-10T02:30:08.252Z,22.62
2017-04-10T02:30:28.308Z,22.59
2017-04-10T02:30:47.753Z,22.68
2017-04-10T02:31:07.742Z,22.67
2017-04-10T02:31:27.711Z,22.65
2017-04-10T02:31:47.728Z,22.65
2017-04-10T02:32:07.734Z,22.6
2017-04-10T02:32:27.170Z,22.65
2017-04-10T02:32:47.176Z,22.63
2017-04-10T02:33:07.214Z,22.56
2017-04-10T02:33:27.213Z,22.63
2017-04-10T02:33:46.613Z,22.53
2017-04-10T02:34:06.805Z,22.67
2017-04-10T02:34:26.240Z,22.68
2017-04-10T02:34:46.213Z,22.68
2017-04-10T02:35:05.653Z,22.69
2017-04-10T02:35:25.092Z,22.59
2017-04-10T02:35:45.020Z,22.68
2017-04-10T02:36:05.015Z,22.67
2017-04-10T02:36:24.977Z,22.69
2017-04-10T02:36:44.968Z,22.63
2017-04-10T02:37:04.967Z,22.63
2017-04-10T02:37:24.951Z,22.65
2017-04-10T02:37:44.968Z,22.56
2017-04-10T02:38:04.959Z,22.54
2017-04-10T02:38:24.931Z,22.57
2017-04-10T02:38:44.367Z,22.59
2017-04-10T02:39:03.795Z,22.6
2017-04-10T02:39:23.200Z,22.68
2017-04-10T02:39:43.185Z,22.65
2017-04-10T02:40:03.176Z,22.65
2017-04-10T02:40:22.627Z,22.67
2017-04-10T02:40:42.627Z,22.65
2017-04-10T02:41:02.664Z,22.71
2017-04-10T02:41:22.696Z,22.63
2017-04-10T02:41:42.674Z,22.57
2017-04-10T02:42:02.687Z,22.67
2017-04-10T02:42:22.631Z,22.69
2017-04-10T02:42:42.634Z,22.65
2017-04-10T02:43:02.621Z,22.71
2017-04-10T02:43:22.596Z,22.67
2017-04-10T02:43:42.580Z,22.71
2017-04-10T02:44:02.624Z,22.69
2017-04-10T02:44:22.650Z,22.68
2017-04-10T02:44:42.620Z,22.69
2017-04-10T02:45:02.617Z,22.72
2017-04-10T02:45:22.614Z,22.57
2017-04-10T02:45:42.587Z,22.57
2017-04-10T02:46:01.988Z,22.65
2017-04-10T02:46:21.440Z,22.53
2017-04-10T02:46:41.426Z,22.42
2017-04-10T02:47:01.433Z,22.42
2017-04-10T02:47:21.362Z,22.52
2017-04-10T02:47:41.342Z,22.62
2017-04-10T02:48:00.770Z,22.56
2017-04-10T02:48:20.776Z,22.53
2017-04-10T02:48:40.764Z,22.42
2017-04-10T02:49:00.756Z,22.52
2017-04-10T02:49:19.093Z,22.59
2017-04-10T02:49:37.949Z,22.49
2017-04-10T02:49:57.935Z,22.57
2017-04-10T02:50:17.920Z,22.5
2017-04-10T02:50:37.914Z,22.57
2017-04-10T02:50:57.894Z,22.59
2017-04-10T02:51:17.867Z,22.57
2017-04-10T02:51:37.849Z,22.6
2017-04-10T02:51:57.820Z,22.6
2017-04-10T02:52:17.805Z,22.57
2017-04-10T02:52:38.444Z,22.62
2017-04-10T02:52:58.430Z,22.56
2017-04-10T02:53:18.394Z,22.59
2017-04-10T02:53:38.376Z,22.56
2017-04-10T02:53:58.356Z,22.67
2017-04-10T02:54:18.378Z,22.71
2017-04-10T02:54:37.813Z,22.53
2017-04-10T02:54:57.802Z,22.54
2017-04-10T02:55:17.772Z,22.56
2017-04-10T02:55:37.798Z,22.53
2017-04-10T02:55:57.772Z,22.53
2017-04-10T02:56:17.780Z,22.54
2017-04-10T02:56:37.758Z,22.53
2017-04-10T02:56:57.796Z,22.56
2017-04-10T02:57:17.768Z,22.59
2017-04-10T02:57:37.786Z,22.53
2017-04-10T02:57:57.797Z,22.54
2017-04-10T02:58:17.757Z,22.59
2017-04-10T02:58:37.759Z,22.59
2017-04-10T02:58:57.201Z,22.68
2017-04-10T02:59:17.179Z,22.62
2017-04-10T02:59:37.156Z,22.68
2017-04-10T02:59:57.125Z,22.68
2017-04-10T03:00:17.160Z,22.67
2017-04-10T03:00:37.145Z,22.68
2017-04-10T03:00:57.134Z,22.62
2017-04-10T03:01:17.080Z,22.62
2017-04-10T03:01:37.097Z,22.68
2017-04-10T03:01:57.085Z,22.68
2017-04-10T03:02:16.509Z,22.62
2017-04-10T03:02:36.487Z,22.67
2017-04-10T03:02:56.491Z,22.62
2017-04-10T03:03:16.497Z,22.57
2017-04-10T03:03:36.490Z,22.59
2017-04-10T03:03:56.523Z,22.59
2017-04-10T03:04:16.534Z,22.59
2017-04-10T03:04:36.536Z,22.57
2017-04-10T03:04:56.565Z,22.56
2017-04-10T03:05:16.582Z,22.6
2017-04-10T03:05:36.553Z,22.53
2017-04-10T03:05:56.572Z,22.59
2017-04-10T03:06:15.978Z,22.54
2017-04-10T03:06:35.965Z,22.57
2017-04-10T03:06:55.953Z,22.41
2017-04-10T03:07:15.947Z,22.54
2017-04-10T03:07:35.936Z,22.47
2017-04-10T03:07:55.938Z,22.49
2017-04-10T03:08:15.908Z,22.47
2017-04-10T03:08:35.908Z,22.49
2017-04-10T03:08:54.981Z,22.63
2017-04-10T03:09:14.981Z,22.53
2017-04-10T03:09:34.392Z,22.56
2017-04-10T03:09:54.361Z,22.52
2017-04-10T03:10:14.369Z,22.56
2017-04-10T03:10:34.361Z,22.57
2017-04-10T03:10:54.326Z,22.57
2017-04-10T03:11:14.368Z,22.56
2017-04-10T03:11:34.351Z,22.62
2017-04-10T03:11:54.337Z,22.54
2017-04-10T03:12:13.773Z,22.54
2017-04-10T03:12:33.174Z,22.56
2017-04-10T03:12:53.249Z,22.62
2017-04-10T03:13:13.221Z,22.62
2017-04-10T03:13:32.666Z,22.62
2017-04-10T03:13:52.643Z,22.62
2017-04-10T03:14:12.643Z,22.62
2017-04-10T03:14:32.671Z,22.54
2017-04-10T03:14:52.121Z,22.6
2017-04-10T03:15:12.122Z,22.54
2017-04-10T03:15:32.108Z,22.68
2017-04-10T03:15:52.099Z,22.68
2017-04-10T03:16:12.105Z,22.67
2017-04-10T03:16:32.099Z,22.68
2017-04-10T03:16:52.051Z,22.69
2017-04-10T03:17:12.093Z,22.68
2017-04-10T03:17:32.125Z,22.68
2017-04-10T03:17:52.125Z,22.67
2017-04-10T03:18:12.144Z,22.69
2017-04-10T03:18:32.119Z,22.68
2017-04-10T03:18:52.122Z,22.71
2017-04-10T03:19:12.132Z,22.69
2017-04-10T03:19:32.125Z,22.69
2017-04-10T03:19:51.540Z,22.71
2017-04-10T03:20:10.972Z,22.67
2017-04-10T03:20:30.970Z,22.65
2017-04-10T03:20:50.410Z,22.74
2017-04-10T03:21:10.434Z,22.79
2017-04-10T03:21:30.458Z,22.72
2017-04-10T03:21:50.459Z,22.77
2017-04-10T03:22:10.476Z,22.77
2017-04-10T03:22:30.481Z,22.78
2017-04-10T03:22:49.941Z,22.77
2017-04-10T03:23:09.926Z,22.65
2017-04-10T03:23:29.929Z,22.77
2017-04-10T03:23:49.385Z,22.69
2017-04-10T03:24:09.370Z,22.81
2017-04-10T03:24:28.815Z,22.79
2017-04-10T03:24:48.845Z,22.69
2017-04-10T03:25:08.849Z,22.78
2017-04-10T03:25:28.794Z,22.75
2017-04-10T03:25:48.782Z,22.77
2017-04-10T03:26:08.751Z,22.84
2017-04-10T03:26:28.173Z,22.89
2017-04-10T03:26:48.159Z,22.89
2017-04-10T03:27:08.156Z,22.87
2017-04-10T03:27:28.136Z,22.86
2017-04-10T03:27:48.111Z,22.93
2017-04-10T03:28:07.584Z,22.84
2017-04-10T03:28:27.578Z,22.9
2017-04-10T03:28:47.037Z,22.97
2017-04-10T03:29:07.055Z,22.84
2017-04-10T03:29:27.035Z,22.87
2017-04-10T03:29:47.057Z,22.9
2017-04-10T03:30:07.311Z,22.86
2017-04-10T03:30:27.292Z,23.02
2017-04-10T03:30:47.296Z,22.92
2017-04-10T03:31:07.245Z,23.04
2017-04-10T03:31:26.700Z,22.9
2017-04-10T03:31:46.106Z,22.9
2017-04-10T03:32:06.067Z,22.79
2017-04-10T03:32:25.501Z,22.74
2017-04-10T03:32:46.404Z,22.75
2017-04-10T03:33:06.415Z,22.75
2017-04-10T03:33:26.406Z,22.69
2017-04-10T03:33:46.384Z,22.69
2017-04-10T03:34:05.794Z,22.74
2017-04-10T03:34:25.776Z,22.77
2017-04-10T03:34:45.998Z,22.65
2017-04-10T03:35:06.303Z,22.72
2017-04-10T03:35:26.270Z,22.71
2017-04-10T03:35:46.270Z,22.68
2017-04-10T03:36:06.232Z,22.68
2017-04-10T03:36:26.179Z,22.67
2017-04-10T03:36:46.157Z,22.69
2017-04-10T03:37:06.158Z,22.72
2017-04-10T03:37:25.005Z,22.69
2017-04-10T03:37:44.417Z,22.72
2017-04-10T03:38:06.889Z,22.77
2017-04-10T03:38:26.305Z,22.71
2017-04-10T03:38:46.336Z,22.78
2017-04-10T03:39:06.332Z,22.69
2017-04-10T03:39:26.319Z,22.77
2017-04-10T03:39:45.759Z,22.75
2017-04-10T03:40:05.791Z,22.74
2017-04-10T03:40:25.758Z,22.75
2017-04-10T03:40:45.157Z,22.78
2017-04-10T03:41:05.364Z,22.83
2017-04-10T03:41:25.388Z,22.75
2017-04-10T03:41:44.845Z,22.72
2017-04-10T03:42:04.800Z,22.75
2017-04-10T03:42:24.807Z,22.71
2017-04-10T03:42:44.239Z,22.74
2017-04-10T03:43:04.228Z,22.74
2017-04-10T03:43:24.228Z,22.78
2017-04-10T03:43:44.201Z,22.72
2017-04-10T03:44:04.348Z,22.77
2017-04-10T03:44:24.324Z,22.77
2017-04-10T03:44:43.738Z,22.75
2017-04-10T03:45:03.707Z,22.74
2017-04-10T03:45:23.694Z,22.74
2017-04-10T03:45:43.691Z,22.86
2017-04-10T03:46:03.677Z,22.81
2017-04-10T03:46:23.693Z,22.86
2017-04-10T03:46:43.675Z,22.78
2017-04-10T03:47:03.670Z,22.75
2017-04-10T03:47:23.676Z,22.72
2017-04-10T03:47:43.671Z,22.83
2017-04-10T03:48:03.672Z,22.83
2017-04-10T03:48:23.090Z,22.78
2017-04-10T03:48:43.046Z,22.86
2017-04-10T03:49:22.201Z,22.75
2017-04-10T03:49:41.514Z,22.75
2017-04-10T03:50:01.572Z,22.79
2017-04-10T03:50:20.846Z,22.79
2017-04-10T03:50:40.189Z,22.83
2017-04-10T03:50:58.997Z,22.83
2017-04-10T03:51:17.761Z,22.92
2017-04-10T03:51:37.052Z,22.84
2017-04-10T03:51:55.855Z,22.93
2017-04-10T03:52:15.131Z,22.9
2017-04-10T03:52:34.373Z,22.99
2017-04-10T03:52:53.728Z,22.87
2017-04-10T03:53:13.020Z,22.93
2017-04-10T03:53:31.825Z,22.93
2017-04-10T03:53:51.089Z,22.89
2017-04-10T03:54:10.370Z,23.02
2017-04-10T03:54:29.604Z,22.9
2017-04-10T03:54:48.891Z,22.86
2017-04-10T03:55:07.648Z,22.83
2017-04-10T03:55:26.933Z,22.86
2017-04-10T03:55:46.267Z,22.84
2017-04-10T03:56:05.570Z,22.77
2017-04-10T03:56:24.829Z,22.77
2017-04-10T03:56:43.604Z,22.74
2017-04-10T03:57:02.899Z,22.65
2017-04-10T03:57:22.203Z,22.68
2017-04-10T03:57:41.779Z,22.75
2017-04-10T03:58:01.057Z,22.71
2017-04-10T03:58:20.334Z,22.68
2017-04-10T03:58:39.616Z,22.72
2017-04-10T03:58:58.923Z,22.72
2017-04-10T03:59:18.216Z,22.75
2017-04-10T03:59:37.496Z,22.75
2017-04-10T03:59:56.228Z,22.77
2017-04-10T04:00:15.530Z,22.68
2017-04-10T04:00:34.800Z,22.71
2017-04-10T04:00:54.085Z,22.74
2017-04-10T04:01:13.364Z,22.68
2017-04-10T04:01:32.651Z,22.67
2017-04-10T04:01:51.952Z,22.54
2017-04-10T04:02:11.216Z,22.57
2017-04-10T04:02:29.967Z,22.56
2017-04-10T04:02:49.349Z,22.57
2017-04-10T04:03:08.652Z,22.59
2017-04-10T04:03:27.403Z,22.57
2017-04-10T04:03:46.699Z,22.56
2017-04-10T04:04:05.965Z,22.62
2017-04-10T04:04:24.705Z,22.62
2017-04-10T04:04:43.997Z,22.56
2017-04-10T04:05:03.287Z,22.62
2017-04-10T04:05:22.055Z,22.57
2017-04-10T04:05:40.856Z,22.49
2017-04-10T04:06:00.143Z,22.57
2017-04-10T04:06:19.426Z,22.53
2017-04-10T04:06:38.239Z,22.63
2017-04-10T04:06:57.540Z,22.63
2017-04-10T04:07:16.871Z,22.62
2017-04-10T04:07:36.182Z,22.6
2017-04-10T04:07:55.434Z,22.71
2017-04-10T04:08:14.724Z,22.63
2017-04-10T04:08:34.025Z,22.59
2017-04-10T04:08:53.335Z,22.54
2017-04-10T04:09:12.631Z,22.68
2017-04-10T04:09:31.909Z,22.63
2017-04-10T04:09:51.188Z,22.68
2017-04-10T04:10:10.485Z,22.75
2017-04-10T04:10:29.273Z,22.69
2017-04-10T04:10:48.562Z,22.65
2017-04-10T04:11:07.861Z,22.68
2017-04-10T04:11:27.126Z,22.63
2017-04-10T04:11:46.384Z,22.6
2017-04-10T04:12:05.657Z,22.67
2017-04-10T04:12:24.419Z,22.65
2017-04-10T04:12:43.698Z,22.65
2017-04-10T04:13:02.977Z,22.67
2017-04-10T04:13:21.769Z,22.67
2017-04-10T04:13:41.110Z,22.69
2017-04-10T04:13:59.918Z,22.67
2017-04-10T04:14:19.251Z,22.63